createdAt,value
2023-01-18T00:00:10.343Z,9.32
2023-01-18T00:02:37.388Z,9.82
2023-01-18T00:05:04.268Z,9.52
2023-01-18T00:07:31.466Z,9.07
2023-01-18T00:09:57.962Z,9.98
2023-01-18T00:12:24.433Z,10.02
2023-01-18T00:14:50.914Z,9.65
2023-01-18T00:17:17.404Z,9.48
2023-01-18T00:19:43.952Z,8.38
2023-01-18T00:22:10.431Z,8.77
2023-01-18T00:24:37.011Z,8.95
2023-01-18T00:27:03.555Z,9.07
2023-01-18T00:29:30.929Z,9.23
2023-01-18T00:31:57.519Z,9.05
2023-01-18T00:34:24.146Z,9.00
2023-01-18T00:36:50.657Z,9.30
2023-01-18T00:39:17.310Z,10.43
2023-01-18T00:42:03.809Z,8.50
2023-01-18T00:44:30.315Z,8.85
2023-01-18T00:46:56.835Z,8.32
2023-01-18T00:49:23.997Z,8.13
2023-01-18T00:51:52.234Z,8.70
2023-01-18T00:54:19.081Z,8.73
2023-01-18T00:56:45.549Z,9.32
2023-01-18T00:59:12.280Z,8.73
2023-01-18T01:01:39.005Z,9.55
2023-01-18T01:04:24.279Z,9.43
2023-01-18T01:06:51.730Z,8.68
2023-01-18T01:09:27.485Z,9.27
2023-01-18T01:12:13.499Z,7.90
2023-01-18T01:15:01.623Z,8.68
2023-01-18T01:17:48.564Z,8.35
2023-01-18T01:20:33.998Z,8.65
2023-01-18T01:23:30.156Z,8.30
2023-01-18T01:26:10.667Z,8.15
2023-01-18T01:28:39.828Z,8.75
2023-01-18T01:31:08.827Z,8.65
2023-01-18T01:33:36.183Z,8.63
2023-01-18T01:36:06.997Z,8.27
2023-01-18T01:38:33.597Z,8.95
2023-01-18T01:41:04.953Z,9.32
2023-01-18T01:43:49.551Z,9.80
2023-01-18T01:46:57.242Z,8.80
2023-01-18T01:49:32.100Z,10.18
2023-01-18T01:52:10.823Z,9.60
2023-01-18T01:54:44.148Z,8.93
2023-01-18T01:57:17.141Z,8.98
2023-01-18T01:59:50.032Z,9.38
2023-01-18T02:02:16.882Z,9.82
2023-01-18T02:04:45.147Z,9.65
2023-01-18T02:07:12.479Z,9.43
2023-01-18T02:09:39.494Z,9.32
2023-01-18T02:12:06.129Z,10.40
2023-01-18T02:14:32.782Z,9.68
2023-01-18T02:17:05.454Z,9.82
2023-01-18T02:19:56.695Z,9.73
2023-01-18T02:22:47.441Z,8.90
2023-01-18T02:25:28.868Z,9.07
2023-01-18T02:28:30.377Z,8.85
2023-01-18T02:31:12.163Z,10.07
2023-01-18T02:34:16.446Z,9.45
2023-01-18T02:37:07.398Z,9.30
2023-01-18T02:39:44.096Z,8.73
2023-01-18T02:42:37.449Z,8.90
2023-01-18T02:45:32.127Z,9.20
2023-01-18T02:48:00.708Z,8.77
2023-01-18T02:50:27.704Z,9.13
2023-01-18T02:52:54.813Z,8.57
2023-01-18T02:55:43.913Z,9.95
2023-01-18T02:58:45.823Z,9.45
2023-01-18T03:01:22.378Z,8.55
2023-01-18T03:03:50.907Z,9.07
2023-01-18T03:06:20.149Z,9.10
2023-01-18T03:08:51.365Z,9.07
2023-01-18T03:11:33.465Z,8.77
2023-01-18T03:14:21.193Z,8.35
2023-01-18T03:17:03.280Z,8.98
2023-01-18T03:19:57.755Z,9.32
2023-01-18T03:22:46.619Z,10.18
2023-01-18T03:25:18.137Z,8.75
2023-01-18T03:28:06.413Z,9.30
2023-01-18T03:30:53.268Z,9.35
2023-01-18T03:33:42.743Z,9.35
2023-01-18T03:36:24.354Z,9.02
2023-01-18T03:39:00.632Z,8.70
2023-01-18T03:41:31.234Z,9.55
2023-01-18T03:44:03.779Z,8.75
2023-01-18T03:46:32.694Z,8.88
2023-01-18T03:48:59.974Z,8.02
2023-01-18T03:51:38.938Z,8.57
2023-01-18T03:54:20.046Z,8.55
2023-01-18T03:56:53.861Z,8.82
2023-01-18T03:59:21.666Z,9.60
2023-01-18T04:01:49.065Z,8.95
2023-01-18T04:04:15.701Z,8.85
2023-01-18T04:06:42.440Z,9.00
2023-01-18T04:09:09.036Z,8.35
2023-01-18T04:11:35.758Z,8.77
2023-01-18T04:14:02.310Z,8.18
2023-01-18T04:16:28.846Z,9.05
2023-01-18T04:18:55.398Z,8.70
2023-01-18T04:21:21.986Z,8.38
2023-01-18T04:23:48.555Z,8.70
2023-01-18T04:26:16.698Z,8.68
2023-01-18T04:28:43.403Z,8.18
2023-01-18T04:31:09.978Z,8.27
2023-01-18T04:33:36.542Z,8.52
2023-01-18T04:36:03.223Z,8.73
2023-01-18T04:38:29.747Z,8.27
2023-01-18T04:40:56.237Z,9.55
2023-01-18T04:43:22.753Z,8.80
2023-01-18T04:45:54.435Z,8.15
2023-01-18T04:48:21.543Z,8.43
2023-01-18T04:50:48.501Z,8.48
2023-01-18T04:53:16.599Z,8.30
2023-01-18T04:55:43.728Z,8.77
2023-01-18T04:58:10.473Z,8.63
2023-01-18T05:00:40.179Z,8.52
2023-01-18T05:03:11.111Z,8.45
2023-01-18T05:05:37.718Z,8.35
2023-01-18T05:08:04.335Z,8.40
2023-01-18T05:10:31.013Z,7.95
2023-01-18T05:12:58.056Z,8.27
2023-01-18T05:15:24.753Z,8.18
2023-01-18T05:17:51.336Z,7.75
2023-01-18T05:20:18.046Z,8.15
2023-01-18T05:22:44.602Z,8.60
2023-01-18T05:25:11.114Z,7.60
2023-01-18T05:27:37.761Z,7.80
2023-01-18T05:30:06.694Z,8.18
2023-01-18T05:32:33.470Z,8.30
2023-01-18T05:35:00.036Z,8.60
2023-01-18T05:37:26.580Z,8.18
2023-01-18T05:39:53.129Z,7.93
2023-01-18T05:42:19.684Z,8.30
2023-01-18T05:44:46.210Z,7.82
2023-01-18T05:47:12.789Z,8.68
2023-01-18T05:49:41.739Z,8.20
2023-01-18T05:52:08.641Z,8.23
2023-01-18T05:54:35.197Z,8.25
2023-01-18T05:57:01.791Z,8.75
2023-01-18T05:59:28.251Z,8.38
2023-01-18T06:01:54.831Z,8.68
2023-01-18T06:04:22.151Z,9.35
2023-01-18T06:06:48.722Z,9.35
2023-01-18T06:09:15.282Z,9.00
2023-01-18T06:11:41.764Z,10.05
2023-01-18T06:14:08.830Z,9.20
2023-01-18T06:16:35.515Z,9.98
2023-01-18T06:19:02.134Z,8.93
2023-01-18T06:21:28.690Z,9.55
2023-01-18T06:23:55.224Z,9.45
2023-01-18T06:26:23.757Z,9.75
2023-01-18T06:28:50.331Z,10.70
2023-01-18T06:31:16.972Z,9.68
2023-01-18T06:33:43.485Z,10.00
2023-01-18T06:36:10.295Z,9.85
2023-01-18T06:38:36.769Z,10.48
2023-01-18T06:41:03.365Z,10.25
2023-01-18T06:43:30.075Z,10.52
2023-01-18T06:45:57.413Z,10.23
2023-01-18T06:48:25.214Z,11.30
2023-01-18T06:50:55.084Z,10.40
2023-01-18T06:53:22.310Z,10.40
2023-01-18T06:55:59.919Z,10.77
2023-01-18T06:58:27.536Z,11.38
2023-01-18T07:00:59.418Z,10.90
2023-01-18T07:03:27.702Z,10.48
2023-01-18T07:05:55.029Z,11.07
2023-01-18T07:08:21.619Z,11.90
2023-01-18T07:10:48.686Z,11.52
2023-01-18T07:13:15.457Z,11.00
2023-01-18T07:15:42.185Z,11.25
2023-01-18T07:18:08.689Z,11.48
2023-01-18T07:20:35.251Z,10.55
2023-01-18T07:23:02.677Z,11.23
2023-01-18T07:25:32.092Z,11.40
2023-01-18T07:27:58.772Z,94.78
2023-01-18T07:30:25.858Z,129.00
2023-01-18T07:32:53.292Z,29.80
2023-01-18T07:35:23.880Z,17.00
2023-01-18T07:37:53.464Z,15.15
2023-01-18T07:40:21.329Z,13.00
2023-01-18T07:42:48.983Z,12.00
2023-01-18T07:45:15.666Z,12.45
2023-01-18T07:47:43.101Z,12.15
2023-01-18T07:50:10.481Z,11.38
2023-01-18T07:52:37.043Z,11.40
2023-01-18T07:55:06.478Z,11.23
2023-01-18T07:57:33.235Z,11.90
2023-01-18T07:59:59.783Z,10.63
2023-01-18T08:02:26.260Z,12.15
2023-01-18T08:04:52.740Z,11.68
2023-01-18T08:07:19.902Z,10.93
2023-01-18T08:09:46.576Z,10.77
2023-01-18T08:12:17.920Z,11.00
2023-01-18T08:14:46.099Z,11.65
2023-01-18T08:17:12.736Z,11.35
2023-01-18T08:19:39.400Z,11.07
2023-01-18T08:22:07.758Z,11.10
2023-01-18T08:24:34.301Z,10.23
2023-01-18T08:27:00.878Z,11.13
2023-01-18T08:29:27.436Z,10.95
2023-01-18T08:31:54.510Z,11.23
2023-01-18T08:34:21.835Z,11.55
2023-01-18T08:36:48.485Z,11.18
2023-01-18T08:39:15.044Z,11.63
2023-01-18T08:41:41.975Z,11.93
2023-01-18T08:44:08.465Z,11.73
2023-01-18T08:46:36.394Z,10.98
2023-01-18T08:49:05.733Z,11.40
2023-01-18T08:51:32.649Z,11.38
2023-01-18T08:53:59.814Z,11.15
2023-01-18T08:56:26.630Z,11.65
2023-01-18T08:58:53.559Z,11.50
2023-01-18T09:01:23.000Z,12.13
2023-01-18T09:03:50.520Z,11.60
2023-01-18T09:06:21.179Z,11.93
2023-01-18T09:08:48.589Z,10.73
2023-01-18T09:11:15.920Z,11.05
2023-01-18T09:13:59.353Z,10.95
2023-01-18T09:16:26.890Z,11.20
2023-01-18T09:18:55.438Z,11.55
2023-01-18T09:21:22.369Z,10.60
2023-01-18T09:23:49.449Z,10.63
2023-01-18T09:26:17.235Z,11.27
2023-01-18T09:28:47.223Z,11.23
2023-01-18T09:31:13.839Z,10.20
2023-01-18T09:33:48.317Z,11.23
2023-01-18T09:36:21.469Z,10.00
2023-01-18T09:38:48.085Z,9.68
2023-01-18T09:41:36.507Z,9.82
2023-01-18T09:44:16.662Z,9.68
2023-01-18T09:46:45.042Z,9.98
2023-01-18T09:49:20.041Z,10.45
2023-01-18T09:51:56.885Z,10.05
2023-01-18T09:54:40.598Z,10.32
2023-01-18T09:57:44.735Z,10.30
2023-01-18T10:00:25.054Z,10.15
2023-01-18T10:02:57.311Z,10.85
2023-01-18T10:05:28.389Z,10.05
2023-01-18T10:08:04.378Z,10.02
2023-01-18T10:10:40.556Z,10.25
2023-01-18T10:13:23.494Z,10.45
2023-01-18T10:15:50.235Z,10.63
2023-01-18T10:18:18.665Z,10.05
2023-01-18T10:20:51.790Z,9.95
2023-01-18T10:23:34.900Z,11.73
2023-01-18T10:26:27.046Z,10.88
2023-01-18T10:29:15.728Z,10.68
2023-01-18T10:32:04.169Z,10.48
2023-01-18T10:34:33.400Z,9.65
2023-01-18T10:37:40.144Z,9.73
2023-01-18T10:42:43.456Z,9.10
2023-01-18T10:45:21.302Z,8.82
2023-01-18T10:47:53.169Z,9.73
2023-01-18T10:50:36.713Z,8.88
2023-01-18T10:53:21.489Z,9.25
2023-01-18T10:56:00.034Z,8.82
2023-01-18T10:58:43.386Z,9.23
2023-01-18T11:01:20.226Z,9.38
2023-01-18T11:03:51.139Z,8.85
2023-01-18T11:06:20.549Z,8.93
2023-01-18T11:08:48.962Z,9.18
2023-01-18T11:11:47.413Z,8.60
2023-01-18T11:14:29.552Z,8.23
2023-01-18T11:17:11.581Z,8.88
2023-01-18T11:19:39.481Z,8.38
2023-01-18T11:22:15.766Z,8.82
2023-01-18T11:24:43.030Z,8.75
2023-01-18T11:27:18.942Z,7.70
2023-01-18T11:29:46.492Z,8.43
2023-01-18T11:32:26.738Z,8.52
2023-01-18T11:34:55.897Z,8.15
2023-01-18T11:37:34.395Z,8.40
2023-01-18T11:40:36.644Z,7.88
2023-01-18T11:43:05.734Z,8.20
2023-01-18T11:45:40.891Z,7.57
2023-01-18T11:48:30.108Z,7.78
2023-01-18T11:51:08.555Z,8.40
2023-01-18T11:54:03.283Z,8.15
2023-01-18T11:56:40.762Z,7.30
2023-01-18T11:59:18.767Z,7.45
2023-01-18T12:02:03.285Z,8.73
2023-01-18T12:04:33.082Z,8.38
2023-01-18T12:07:24.602Z,6.95
2023-01-18T12:09:57.890Z,6.78
2023-01-18T12:12:35.583Z,7.35
2023-01-18T12:15:22.524Z,8.25
2023-01-18T12:18:13.276Z,7.35
2023-01-18T12:21:01.564Z,7.22
2023-01-18T12:23:50.081Z,7.68
2023-01-18T12:26:35.890Z,6.75
2023-01-18T12:32:13.766Z,7.10
2023-01-18T12:35:19.052Z,6.97
2023-01-18T12:38:14.238Z,6.68
2023-01-18T12:41:16.380Z,6.68
2023-01-18T12:44:13.944Z,6.82
2023-01-18T12:46:49.271Z,5.78
2023-01-18T12:49:19.187Z,5.78
2023-01-18T12:51:50.378Z,5.57
2023-01-18T12:54:34.527Z,6.32
2023-01-18T12:57:02.035Z,5.15
2023-01-18T12:59:34.736Z,5.45
2023-01-18T13:02:21.344Z,5.18
2023-01-18T13:05:04.337Z,4.93
2023-01-18T13:07:35.733Z,5.40
2023-01-18T13:10:02.788Z,5.38
2023-01-18T13:12:29.633Z,5.05
2023-01-18T13:15:21.692Z,4.80
2023-01-18T13:17:56.092Z,4.47
2023-01-18T13:20:36.602Z,4.80
2023-01-18T13:23:18.544Z,5.15
2023-01-18T13:26:01.595Z,4.95
2023-01-18T13:28:28.653Z,5.10
2023-01-18T13:31:03.098Z,5.25
2023-01-18T13:33:32.608Z,4.57
2023-01-18T13:36:07.899Z,5.25
2023-01-18T13:38:41.557Z,4.60
2023-01-18T13:41:13.250Z,5.22
2023-01-18T13:43:41.218Z,5.28
2023-01-18T13:46:07.760Z,4.85
2023-01-18T13:48:57.519Z,4.43
2023-01-18T13:51:33.266Z,4.50
2023-01-18T13:53:59.853Z,4.45
2023-01-18T13:56:28.118Z,4.97
2023-01-18T13:59:00.365Z,4.65
2023-01-18T14:01:32.705Z,5.15
2023-01-18T14:04:19.047Z,4.50
2023-01-18T14:06:46.701Z,4.85
2023-01-18T14:09:16.089Z,5.55
2023-01-18T14:11:52.286Z,4.82
2023-01-18T14:14:19.600Z,4.35
2023-01-18T14:16:59.837Z,4.82
2023-01-18T14:19:28.455Z,4.22
2023-01-18T14:22:07.284Z,4.80
2023-01-18T14:24:52.695Z,4.18
2023-01-18T14:27:25.514Z,4.32
2023-01-18T14:30:12.708Z,6.38
2023-01-18T14:32:46.033Z,6.72
2023-01-18T14:35:20.535Z,3.88
2023-01-18T14:37:47.094Z,4.43
2023-01-18T14:40:18.715Z,4.38
2023-01-18T14:42:59.190Z,3.85
2023-01-18T14:45:30.978Z,4.20
2023-01-18T14:48:12.819Z,4.07
2023-01-18T14:50:45.758Z,4.15
2023-01-18T14:53:25.340Z,4.13
2023-01-18T14:56:14.685Z,4.03
2023-01-18T14:58:44.730Z,3.80
2023-01-18T15:01:28.343Z,3.85
2023-01-18T15:03:57.115Z,4.10
2023-01-18T15:06:35.536Z,5.50
2023-01-18T15:09:05.693Z,3.70
2023-01-18T15:11:34.372Z,4.15
2023-01-18T15:14:01.158Z,3.97
2023-01-18T15:16:31.067Z,3.92
2023-01-18T15:19:02.001Z,4.55
2023-01-18T15:21:31.984Z,3.78
2023-01-18T15:24:05.037Z,3.65
2023-01-18T15:26:52.748Z,3.50
2023-01-18T15:29:25.030Z,3.60
2023-01-18T15:31:56.256Z,3.72
2023-01-18T15:34:32.829Z,3.63
2023-01-18T15:37:01.299Z,3.22
2023-01-18T15:39:27.983Z,3.08
2023-01-18T15:41:57.045Z,3.42
2023-01-18T15:44:32.355Z,3.80
2023-01-18T15:46:59.063Z,3.75
2023-01-18T15:49:25.667Z,3.50
2023-01-18T15:51:52.671Z,3.15
2023-01-18T15:54:26.884Z,3.25
2023-01-18T15:56:57.889Z,3.72
2023-01-18T15:59:27.040Z,3.47
2023-01-18T16:02:12.987Z,3.55
2023-01-18T16:04:40.699Z,3.28
2023-01-18T16:07:37.525Z,3.78
2023-01-18T16:10:30.190Z,3.00
2023-01-18T16:13:22.801Z,3.63
2023-01-18T16:16:15.525Z,3.53
2023-01-18T16:19:11.375Z,3.85
2023-01-18T16:21:44.619Z,3.50
2023-01-18T16:24:16.595Z,3.45
2023-01-18T16:26:44.077Z,3.42
2023-01-18T16:29:10.816Z,4.13
2023-01-18T16:31:41.418Z,4.13
2023-01-18T16:34:18.701Z,3.90
2023-01-18T16:36:45.298Z,3.40
2023-01-18T16:39:11.893Z,3.53
2023-01-18T16:41:41.820Z,4.82
2023-01-18T16:44:11.379Z,4.18
2023-01-18T16:46:38.039Z,3.83
2023-01-18T16:49:09.649Z,3.53
2023-01-18T16:51:36.249Z,4.40
2023-01-18T16:54:02.815Z,4.20
2023-01-18T16:56:29.357Z,4.05
2023-01-18T16:58:55.880Z,4.35
2023-01-18T17:01:22.527Z,4.30
2023-01-18T17:03:50.836Z,4.30
2023-01-18T17:06:20.809Z,4.43
2023-01-18T17:08:49.102Z,5.18
2023-01-18T17:11:15.682Z,4.60
2023-01-18T17:13:42.189Z,4.90
2023-01-18T17:16:16.963Z,4.85
2023-01-18T17:18:43.876Z,4.85
2023-01-18T17:21:11.581Z,4.80
2023-01-18T17:23:39.846Z,4.72
2023-01-18T17:26:07.825Z,4.68
2023-01-18T17:28:34.434Z,5.63
2023-01-18T17:31:01.342Z,4.85
2023-01-18T17:33:28.409Z,4.95
2023-01-18T17:35:55.458Z,5.43
2023-01-18T17:38:24.365Z,5.57
2023-01-18T17:40:51.916Z,5.57
2023-01-18T17:43:28.422Z,5.75
2023-01-18T17:46:02.549Z,5.40
2023-01-18T17:48:29.204Z,5.55
2023-01-18T17:50:55.972Z,6.15
2023-01-18T17:53:22.686Z,5.70
2023-01-18T17:55:52.583Z,6.45
2023-01-18T17:58:19.077Z,5.75
2023-01-18T18:00:45.633Z,6.45
2023-01-18T18:03:13.051Z,6.05
2023-01-18T18:05:39.724Z,6.07
2023-01-18T18:08:07.582Z,6.28
2023-01-18T18:10:34.121Z,5.60
2023-01-18T18:13:01.246Z,6.07
2023-01-18T18:15:28.334Z,6.40
2023-01-18T18:17:54.846Z,6.10
2023-01-18T18:20:22.758Z,5.90
2023-01-18T18:22:49.483Z,6.57
2023-01-18T18:25:16.169Z,6.63
2023-01-18T18:27:46.856Z,6.28
2023-01-18T18:30:14.899Z,6.60
2023-01-18T18:32:41.752Z,6.70
2023-01-18T18:35:23.840Z,6.80
2023-01-18T18:37:53.482Z,7.25
2023-01-18T18:40:20.526Z,6.00
2023-01-18T18:43:00.726Z,7.07
2023-01-18T18:45:29.461Z,6.75
2023-01-18T18:47:55.950Z,6.63
2023-01-18T18:50:22.483Z,7.07
2023-01-18T18:52:49.032Z,6.05
2023-01-18T18:55:15.701Z,6.20
2023-01-18T18:57:42.297Z,7.07
2023-01-18T19:00:09.511Z,6.18
2023-01-18T19:02:36.151Z,6.10
2023-01-18T19:05:03.549Z,6.18
2023-01-18T19:07:30.115Z,6.72
2023-01-18T19:09:56.686Z,6.57
2023-01-18T19:12:23.248Z,6.18
2023-01-18T19:14:49.828Z,6.22
2023-01-18T19:17:28.861Z,7.15
2023-01-18T19:19:56.232Z,6.78
2023-01-18T19:22:22.755Z,6.53
2023-01-18T19:24:49.391Z,7.78
2023-01-18T19:27:16.578Z,6.97
2023-01-18T19:29:43.190Z,6.45
2023-01-18T19:32:10.022Z,7.57
2023-01-18T19:34:39.602Z,7.75
2023-01-18T19:37:06.783Z,7.80
2023-01-18T19:39:34.812Z,7.53
2023-01-18T19:42:02.375Z,7.00
2023-01-18T19:44:29.082Z,7.22
2023-01-18T19:46:56.955Z,7.35
2023-01-18T19:49:25.578Z,6.90
2023-01-18T19:51:52.891Z,7.03
2023-01-18T19:54:19.426Z,8.43
2023-01-18T19:56:46.452Z,7.03
2023-01-18T19:59:14.476Z,7.53
2023-01-18T20:01:41.146Z,7.75
2023-01-18T20:04:08.644Z,7.80
2023-01-18T20:06:38.241Z,8.10
2023-01-18T20:09:15.780Z,8.38
2023-01-18T20:11:45.396Z,8.88
2023-01-18T20:14:12.843Z,8.50
2023-01-18T20:16:39.735Z,8.32
2023-01-18T20:19:06.432Z,7.93
2023-01-18T20:21:32.946Z,7.38
2023-01-18T20:23:59.527Z,7.63
2023-01-18T20:26:36.075Z,8.32
2023-01-18T20:29:07.327Z,7.57
2023-01-18T20:31:38.131Z,8.30
2023-01-18T20:34:05.726Z,8.07
2023-01-18T20:36:34.880Z,8.07
2023-01-18T20:39:02.279Z,8.00
2023-01-18T20:41:28.929Z,8.13
2023-01-18T20:43:55.432Z,8.02
2023-01-18T20:46:22.286Z,7.68
2023-01-18T20:48:49.620Z,7.90
2023-01-18T20:51:17.896Z,8.07
2023-01-18T20:53:44.659Z,8.07
2023-01-18T20:56:27.742Z,7.70
2023-01-18T20:58:55.244Z,8.18
2023-01-18T21:01:21.947Z,7.53
2023-01-18T21:03:54.487Z,8.07
2023-01-18T21:06:21.293Z,7.72
2023-01-18T21:08:47.823Z,8.00
2023-01-18T21:11:17.548Z,8.80
2023-01-18T21:13:44.491Z,9.23
2023-01-18T21:16:11.181Z,7.78
2023-01-18T21:18:39.430Z,8.38
2023-01-18T21:21:07.366Z,8.98
2023-01-18T21:23:39.206Z,8.32
2023-01-18T21:26:12.029Z,8.02
2023-01-18T21:28:39.215Z,8.52
2023-01-18T21:31:06.642Z,8.60
2023-01-18T21:33:33.777Z,8.43
2023-01-18T21:36:15.311Z,8.18
2023-01-18T21:38:41.969Z,9.20
2023-01-18T21:41:27.368Z,8.57
2023-01-18T21:44:12.859Z,9.73
2023-01-18T21:46:48.067Z,8.70
2023-01-18T21:49:47.162Z,8.55
2023-01-18T21:52:38.151Z,8.68
2023-01-18T21:55:04.890Z,8.32
2023-01-18T21:57:31.388Z,9.20
2023-01-18T21:59:57.961Z,9.38
2023-01-18T22:02:24.769Z,8.88
2023-01-18T22:04:58.978Z,9.05
2023-01-18T22:07:30.176Z,9.23
2023-01-18T22:10:05.197Z,9.27
2023-01-18T22:12:34.936Z,9.43
2023-01-18T22:15:02.258Z,9.90
2023-01-18T22:18:31.902Z,9.65
2023-01-18T22:20:58.630Z,9.60
2023-01-18T22:23:25.130Z,9.45
2023-01-18T22:25:55.281Z,9.10
2023-01-18T22:28:31.913Z,10.43
2023-01-18T22:30:58.877Z,10.07
2023-01-18T22:33:25.413Z,10.18
2023-01-18T22:35:57.666Z,9.52
2023-01-18T22:38:24.417Z,10.15
2023-01-18T22:41:00.302Z,10.18
2023-01-18T22:43:26.904Z,10.02
2023-01-18T22:45:56.876Z,9.68
2023-01-18T22:48:23.696Z,10.63
2023-01-18T22:50:58.674Z,11.02
2023-01-18T22:53:27.257Z,10.23
2023-01-18T22:55:55.231Z,11.00
2023-01-18T22:58:21.791Z,10.75
2023-01-18T23:00:49.046Z,11.40
2023-01-18T23:03:17.363Z,11.60
2023-01-18T23:05:55.998Z,10.90
2023-01-18T23:08:24.026Z,11.60
2023-01-18T23:10:56.795Z,12.05
2023-01-18T23:13:23.619Z,12.13
2023-01-18T23:16:08.902Z,11.15
2023-01-18T23:18:35.455Z,11.95
2023-01-18T23:21:02.037Z,11.18
2023-01-18T23:23:28.558Z,11.82
2023-01-18T23:25:56.307Z,12.65
2023-01-18T23:28:41.451Z,11.48
2023-01-18T23:31:07.920Z,11.55
2023-01-18T23:33:34.566Z,11.68
2023-01-18T23:36:01.047Z,12.80
2023-01-18T23:38:27.523Z,12.43
2023-01-18T23:41:14.090Z,12.27
2023-01-18T23:43:59.722Z,12.80
2023-01-18T23:46:44.687Z,12.40
2023-01-18T23:49:29.806Z,13.87
2023-01-18T23:52:15.034Z,11.55
2023-01-18T23:54:41.641Z,12.02
2023-01-18T23:57:08.161Z,12.45
2023-01-18T23:59:34.781Z,12.48
